createdAt,value
2023-04-19T00:02:06.846Z,69.11
2023-04-19T00:04:34.105Z,68.98
2023-04-19T00:07:00.937Z,69.45
2023-04-19T00:09:27.607Z,69.52
2023-04-19T00:11:54.346Z,69.27
2023-04-19T00:14:21.130Z,69.28
2023-04-19T00:16:47.969Z,69.18
2023-04-19T00:19:14.742Z,69.11
2023-04-19T00:21:41.475Z,69.51
2023-04-19T00:24:08.692Z,69.43
2023-04-19T00:26:35.418Z,69.02
2023-04-19T00:29:02.323Z,69.27
2023-04-19T00:31:29.121Z,69.50
2023-04-19T00:33:57.322Z,69.62
2023-04-19T00:36:27.415Z,69.12
2023-04-19T00:38:54.133Z,69.06
2023-04-19T00:41:21.559Z,69.63
2023-04-19T00:43:48.248Z,69.83
2023-04-19T00:46:16.135Z,69.84
2023-04-19T00:48:43.137Z,69.78
2023-04-19T00:51:12.089Z,69.68
2023-04-19T00:53:39.060Z,69.90
2023-04-19T00:56:06.075Z,69.78
2023-04-19T00:58:33.010Z,70.18
2023-04-19T01:01:00.562Z,70.03
2023-04-19T01:03:29.768Z,69.73
2023-04-19T01:05:57.327Z,70.25
2023-04-19T01:08:24.386Z,69.70
2023-04-19T01:10:53.965Z,70.25
2023-04-19T01:13:20.674Z,70.08
2023-04-19T01:15:48.487Z,70.02
2023-04-19T01:18:15.260Z,70.12
2023-04-19T01:20:42.860Z,70.32
2023-04-19T01:23:11.780Z,70.33
2023-04-19T01:25:39.245Z,70.27
2023-04-19T01:28:06.391Z,70.04
2023-04-19T01:30:33.130Z,70.10
2023-04-19T01:32:59.950Z,70.52
2023-04-19T01:35:26.746Z,70.74
2023-04-19T01:37:55.708Z,70.52
2023-04-19T01:40:26.283Z,70.50
2023-04-19T01:42:53.489Z,70.83
2023-04-19T01:45:20.339Z,70.58
2023-04-19T01:47:50.586Z,70.58
2023-04-19T01:50:17.387Z,70.40
2023-04-19T01:52:44.132Z,70.48
2023-04-19T01:55:10.872Z,70.61
2023-04-19T01:57:37.549Z,70.21
2023-04-19T02:00:04.711Z,70.23
2023-04-19T02:02:41.419Z,70.37
2023-04-19T02:05:08.891Z,70.03
2023-04-19T02:07:35.765Z,70.78
2023-04-19T02:10:02.472Z,70.41
2023-04-19T02:12:31.086Z,70.40
2023-04-19T02:14:58.308Z,70.08
2023-04-19T02:17:30.611Z,70.04
2023-04-19T02:19:59.499Z,70.51
2023-04-19T02:22:27.108Z,70.40
2023-04-19T02:24:54.322Z,70.57
2023-04-19T02:27:27.318Z,70.33
2023-04-19T02:29:54.682Z,70.55
2023-04-19T02:32:21.462Z,70.28
2023-04-19T02:34:48.185Z,70.51
2023-04-19T02:37:14.910Z,70.47
2023-04-19T02:39:42.875Z,70.71
2023-04-19T02:42:09.619Z,70.93
2023-04-19T02:44:36.353Z,70.78
2023-04-19T02:47:03.080Z,71.09
2023-04-19T02:49:33.311Z,71.04
2023-04-19T02:52:01.002Z,71.20
2023-04-19T02:54:27.755Z,71.08
2023-04-19T02:56:54.520Z,71.17
2023-04-19T02:59:21.864Z,71.07
2023-04-19T03:01:48.826Z,71.14
2023-04-19T03:04:17.318Z,71.18
2023-04-19T03:06:44.612Z,70.85
2023-04-19T03:09:12.188Z,71.09
2023-04-19T03:11:39.162Z,71.19
2023-04-19T03:14:06.144Z,70.99
2023-04-19T03:16:33.853Z,71.01
2023-04-19T03:19:01.007Z,71.30
2023-04-19T03:21:32.640Z,71.08
2023-04-19T03:24:00.056Z,70.96
2023-04-19T03:26:27.183Z,70.71
2023-04-19T03:28:56.378Z,70.93
2023-04-19T03:31:23.163Z,71.09
2023-04-19T03:33:51.455Z,70.86
2023-04-19T03:36:20.121Z,71.00
2023-04-19T03:38:47.402Z,71.01
2023-04-19T03:41:23.560Z,71.09
2023-04-19T03:44:13.308Z,71.35
2023-04-19T03:46:43.436Z,71.77
2023-04-19T03:49:10.422Z,72.08
2023-04-19T03:51:37.882Z,72.29
2023-04-19T03:54:04.676Z,72.33
2023-04-19T03:56:32.684Z,72.46
2023-04-19T03:58:59.602Z,72.90
2023-04-19T04:01:27.994Z,72.41
2023-04-19T04:03:55.990Z,72.72
2023-04-19T04:06:23.095Z,72.71
2023-04-19T04:08:50.177Z,73.17
2023-04-19T04:11:17.064Z,73.13
2023-04-19T04:13:46.855Z,73.15
2023-04-19T04:16:18.573Z,72.65
2023-04-19T04:18:45.576Z,72.67
2023-04-19T04:21:14.674Z,72.85
2023-04-19T04:23:43.799Z,73.05
2023-04-19T04:26:16.823Z,73.07
2023-04-19T04:29:10.037Z,73.01
2023-04-19T04:31:39.637Z,73.22
2023-04-19T04:34:06.780Z,73.28
2023-04-19T04:36:37.811Z,73.23
2023-04-19T04:39:06.652Z,73.59
2023-04-19T04:41:33.642Z,73.67
2023-04-19T04:46:31.572Z,73.73
2023-04-19T04:48:58.431Z,73.71
2023-04-19T04:51:25.316Z,73.85
2023-04-19T04:53:53.387Z,73.71
2023-04-19T04:56:20.593Z,73.04
2023-04-19T04:58:47.434Z,73.42
2023-04-19T05:01:22.980Z,73.02
2023-04-19T05:03:50.755Z,72.69
2023-04-19T05:06:19.313Z,72.86
2023-04-19T05:08:46.153Z,73.00
2023-04-19T05:11:21.719Z,72.68
2023-04-19T05:13:48.558Z,72.54
2023-04-19T05:16:15.412Z,72.68
2023-04-19T05:18:44.952Z,72.81
2023-04-19T05:21:11.761Z,72.90
2023-04-19T05:23:39.689Z,72.62
2023-04-19T05:26:06.635Z,72.61
2023-04-19T05:28:33.359Z,72.37
2023-04-19T05:31:09.414Z,72.77
2023-04-19T05:33:44.598Z,72.65
2023-04-19T05:36:11.608Z,72.36
2023-04-19T05:38:38.382Z,72.27
2023-04-19T05:41:06.550Z,72.45
2023-04-19T05:43:33.257Z,72.04
2023-04-19T05:46:00.435Z,72.07
2023-04-19T05:48:27.317Z,71.91
2023-04-19T05:50:55.276Z,71.38
2023-04-19T05:53:57.179Z,71.20
2023-04-19T05:56:25.072Z,71.20
2023-04-19T05:58:51.830Z,71.23
2023-04-19T06:01:18.691Z,70.84
2023-04-19T06:03:45.752Z,70.41
2023-04-19T06:06:12.641Z,70.37
2023-04-19T06:08:39.391Z,70.29
2023-04-19T06:11:15.715Z,70.28
2023-04-19T06:13:51.321Z,69.70
2023-04-19T06:16:18.868Z,69.74
2023-04-19T06:18:45.659Z,69.53
2023-04-19T06:21:12.367Z,69.18
2023-04-19T06:23:39.116Z,69.03
2023-04-19T06:26:05.998Z,68.38
2023-04-19T06:28:32.720Z,68.28
2023-04-19T06:30:59.566Z,68.75
2023-04-19T06:33:26.395Z,68.86
2023-04-19T06:35:53.224Z,68.72
2023-04-19T06:38:19.930Z,68.31
2023-04-19T06:40:46.649Z,68.36
2023-04-19T06:43:13.513Z,68.78
2023-04-19T06:45:40.270Z,67.77
2023-04-19T06:48:07.036Z,67.10
2023-04-19T06:50:33.813Z,67.32
2023-04-19T06:53:01.184Z,67.99
2023-04-19T06:55:29.107Z,68.81
2023-04-19T06:57:55.816Z,68.85
2023-04-19T07:00:23.149Z,68.90
2023-04-19T07:02:51.127Z,67.62
2023-04-19T07:05:18.408Z,66.83
2023-04-19T07:07:45.111Z,66.31
2023-04-19T07:10:13.040Z,65.69
2023-04-19T07:12:39.839Z,66.16
2023-04-19T07:15:07.010Z,64.61
2023-04-19T07:17:36.140Z,64.57
2023-04-19T07:20:04.497Z,65.58
2023-04-19T07:22:31.373Z,65.97
2023-04-19T07:24:58.718Z,66.11
2023-04-19T07:27:25.878Z,66.70
2023-04-19T07:29:53.401Z,64.58
2023-04-19T07:32:21.119Z,64.75
2023-04-19T07:34:47.926Z,63.25
2023-04-19T07:37:14.932Z,62.52
2023-04-19T07:39:41.824Z,61.26
2023-04-19T07:42:08.546Z,62.25
2023-04-19T07:44:35.421Z,63.66
2023-04-19T07:47:02.165Z,61.55
2023-04-19T07:49:33.996Z,62.77
2023-04-19T07:52:04.243Z,62.87
2023-04-19T07:54:31.546Z,62.63
2023-04-19T07:56:59.216Z,62.42
2023-04-19T07:59:26.037Z,62.18
2023-04-19T08:01:52.831Z,62.07
2023-04-19T08:04:21.081Z,63.25
2023-04-19T08:06:48.213Z,61.22
2023-04-19T08:09:15.068Z,60.21
2023-04-19T08:11:43.270Z,59.94
2023-04-19T08:14:18.580Z,59.48
2023-04-19T08:17:21.936Z,58.22
2023-04-19T08:19:43.531Z,58.83
2023-04-19T08:22:10.788Z,58.93
2023-04-19T08:24:37.546Z,58.29
2023-04-19T08:27:04.288Z,58.14
2023-04-19T08:29:31.321Z,57.48
2023-04-19T08:31:58.172Z,57.93
2023-04-19T08:34:25.040Z,57.15
2023-04-19T08:37:03.262Z,57.76
2023-04-19T08:39:33.889Z,56.49
2023-04-19T08:42:12.647Z,56.08
2023-04-19T08:45:09.479Z,57.49
2023-04-19T08:47:51.973Z,56.13
2023-04-19T08:50:33.321Z,58.22
2023-04-19T08:53:16.544Z,58.82
2023-04-19T08:56:08.597Z,58.27
2023-04-19T08:58:57.106Z,58.44
2023-04-19T09:01:34.669Z,58.08
2023-04-19T09:04:26.188Z,59.24
2023-04-19T09:06:52.882Z,60.81
2023-04-19T09:11:51.820Z,61.93
2023-04-19T09:14:20.918Z,62.26
2023-04-19T09:16:48.122Z,61.45
2023-04-19T09:19:24.285Z,59.91
2023-04-19T09:21:54.770Z,60.38
2023-04-19T09:25:04.448Z,59.56
2023-04-19T09:27:37.357Z,59.01
2023-04-19T09:30:05.115Z,58.29
2023-04-19T09:32:47.119Z,57.84
2023-04-19T09:35:14.424Z,57.57
2023-04-19T09:40:24.909Z,54.73
2023-04-19T09:48:10.558Z,52.09
2023-04-19T09:50:58.611Z,51.26
2023-04-19T09:53:28.960Z,52.41
2023-04-19T09:56:01.671Z,51.39
2023-04-19T09:58:41.566Z,51.48
2023-04-19T10:01:16.173Z,51.75
2023-04-19T10:03:49.446Z,51.48
2023-04-19T10:08:51.189Z,54.11
2023-04-19T10:11:19.348Z,54.63
2023-04-19T10:13:47.412Z,56.11
2023-04-19T10:16:19.472Z,54.76
2023-04-19T10:18:50.469Z,53.93
2023-04-19T10:21:18.308Z,52.45
2023-04-19T10:23:45.091Z,53.93
2023-04-19T10:26:11.785Z,54.51
2023-04-19T10:28:38.536Z,53.41
2023-04-19T10:31:05.557Z,54.34
2023-04-19T10:33:36.288Z,54.33
2023-04-19T10:36:04.065Z,56.17
2023-04-19T10:38:45.946Z,54.42
2023-04-19T10:41:17.015Z,53.60
2023-04-19T10:44:08.744Z,53.31
2023-04-19T10:46:36.379Z,52.75
2023-04-19T10:49:04.836Z,53.07
2023-04-19T10:51:36.696Z,55.49
2023-04-19T10:54:09.822Z,53.77
2023-04-19T10:56:36.545Z,54.92
2023-04-19T10:59:05.454Z,56.02
2023-04-19T11:01:43.497Z,55.74
2023-04-19T11:04:18.629Z,56.83
2023-04-19T11:06:51.733Z,55.96
2023-04-19T11:09:39.112Z,57.64
2023-04-19T11:12:10.927Z,59.09
2023-04-19T11:14:40.698Z,59.56
2023-04-19T11:17:25.792Z,60.85
2023-04-19T11:20:08.701Z,62.08
2023-04-19T11:22:46.167Z,63.35
2023-04-19T11:25:19.245Z,63.74
2023-04-19T11:27:48.070Z,64.14
2023-04-19T11:30:17.362Z,65.24
2023-04-19T11:32:48.729Z,64.74
2023-04-19T11:35:17.456Z,66.05
2023-04-19T11:37:44.129Z,67.72
2023-04-19T11:40:15.364Z,69.43
2023-04-19T11:42:42.107Z,70.60
2023-04-19T11:45:18.622Z,70.93
2023-04-19T11:47:53.238Z,71.03
2023-04-19T11:50:39.199Z,71.11
2023-04-19T11:53:15.173Z,71.07
2023-04-19T11:55:51.536Z,71.26
2023-04-19T11:58:51.580Z,71.54
2023-04-19T12:01:19.949Z,71.14
2023-04-19T12:03:53.571Z,71.35
2023-04-19T12:06:23.415Z,72.25
2023-04-19T12:08:52.303Z,72.44
2023-04-19T12:11:23.104Z,71.92
2023-04-19T12:14:19.416Z,72.17
2023-04-19T12:16:46.634Z,72.28
2023-04-19T12:19:20.762Z,73.07
2023-04-19T12:21:47.882Z,72.86
2023-04-19T12:24:17.780Z,73.10
2023-04-19T12:26:57.948Z,72.58
2023-04-19T12:29:26.745Z,72.26
2023-04-19T12:31:53.542Z,71.93
2023-04-19T12:34:20.418Z,72.36
2023-04-19T12:36:47.480Z,72.74
2023-04-19T12:39:14.410Z,73.20
2023-04-19T12:41:43.948Z,70.71
2023-04-19T12:44:10.740Z,71.62
2023-04-19T12:46:37.571Z,71.26
2023-04-19T12:49:04.371Z,71.63
2023-04-19T12:51:31.947Z,71.32
2023-04-19T12:53:58.758Z,70.17
2023-04-19T12:56:25.587Z,70.73
2023-04-19T12:58:53.145Z,71.25
2023-04-19T13:01:19.885Z,71.04
2023-04-19T13:03:46.793Z,70.82
2023-04-19T13:06:15.604Z,70.53
2023-04-19T13:08:46.496Z,69.25
2023-04-19T13:11:14.539Z,68.53
2023-04-19T13:13:41.592Z,69.16
2023-04-19T13:16:08.424Z,68.90
2023-04-19T13:18:35.499Z,68.57
2023-04-19T13:21:02.206Z,68.56
2023-04-19T13:23:30.157Z,68.72
2023-04-19T13:25:56.887Z,67.75
2023-04-19T13:28:23.574Z,67.57
2023-04-19T13:30:50.327Z,67.56
2023-04-19T13:33:17.132Z,66.88
2023-04-19T13:35:45.200Z,66.46
2023-04-19T13:38:12.260Z,67.50
2023-04-19T13:40:39.025Z,67.97
2023-04-19T13:43:05.706Z,67.65
2023-04-19T13:45:32.447Z,67.23
2023-04-19T13:47:59.261Z,65.27
2023-04-19T13:50:26.092Z,65.78
2023-04-19T13:52:52.820Z,66.17
2023-04-19T13:55:19.571Z,65.51
2023-04-19T13:57:46.437Z,64.99
2023-04-19T14:00:13.685Z,64.13
2023-04-19T14:02:40.568Z,63.78
2023-04-19T14:05:07.786Z,62.59
2023-04-19T14:07:34.519Z,62.13
2023-04-19T14:10:01.213Z,61.71
2023-04-19T14:12:27.934Z,60.95
2023-04-19T14:14:54.643Z,61.01
2023-04-19T14:17:21.713Z,60.26
2023-04-19T14:19:48.435Z,59.19
2023-04-19T14:22:16.482Z,59.24
2023-04-19T14:24:43.238Z,57.63
2023-04-19T14:27:11.511Z,58.06
2023-04-19T14:29:38.896Z,56.85
2023-04-19T14:32:21.463Z,56.47
2023-04-19T14:34:51.631Z,57.78
2023-04-19T14:37:19.223Z,58.40
2023-04-19T14:39:46.680Z,58.89
2023-04-19T14:42:13.792Z,58.78
2023-04-19T14:44:40.953Z,59.62
2023-04-19T14:47:07.814Z,58.27
2023-04-19T14:49:34.526Z,59.12
2023-04-19T14:52:01.203Z,60.29
2023-04-19T14:54:28.110Z,60.48
2023-04-19T14:56:54.804Z,59.81
2023-04-19T14:59:21.764Z,59.15
2023-04-19T15:01:48.880Z,60.65
2023-04-19T15:04:16.768Z,61.92
2023-04-19T15:06:43.656Z,62.68
2023-04-19T15:09:10.599Z,61.67
2023-04-19T15:11:37.369Z,60.98
2023-04-19T15:14:04.184Z,59.77
2023-04-19T15:16:31.478Z,59.36
2023-04-19T15:18:58.296Z,59.96
2023-04-19T15:21:25.098Z,60.38
2023-04-19T15:23:51.819Z,60.26
2023-04-19T15:26:18.532Z,59.21
2023-04-19T15:28:45.899Z,59.43
2023-04-19T15:31:12.852Z,59.69
2023-04-19T15:33:39.635Z,60.06
2023-04-19T15:36:06.544Z,59.44
2023-04-19T15:38:33.627Z,59.87
2023-04-19T15:41:03.606Z,60.15
2023-04-19T15:43:30.383Z,58.82
2023-04-19T15:45:57.119Z,58.80
2023-04-19T15:48:23.895Z,59.42
2023-04-19T15:50:50.915Z,60.87
2023-04-19T15:53:17.681Z,60.10
2023-04-19T15:55:46.740Z,60.71
2023-04-19T15:58:13.621Z,61.88
2023-04-19T16:00:40.424Z,61.95
2023-04-19T16:03:09.043Z,61.63
2023-04-19T16:05:35.903Z,61.56
2023-04-19T16:08:04.656Z,61.64
2023-04-19T16:10:31.648Z,61.30
2023-04-19T16:12:58.476Z,53.22
2023-04-19T16:15:25.239Z,50.16
2023-04-19T16:17:52.709Z,51.36
2023-04-19T16:20:20.696Z,47.88
2023-04-19T16:22:47.995Z,47.71
2023-04-19T16:25:15.798Z,48.71
2023-04-19T16:27:44.088Z,49.49
2023-04-19T16:30:14.417Z,43.77
2023-04-19T16:32:41.699Z,44.48
2023-04-19T16:35:08.841Z,45.48
2023-04-19T16:37:36.058Z,46.63
2023-04-19T16:40:08.356Z,44.95
2023-04-19T16:42:36.874Z,43.98
2023-04-19T16:45:06.509Z,46.49
2023-04-19T16:47:33.641Z,45.02
2023-04-19T16:50:01.120Z,47.37
2023-04-19T16:52:29.244Z,45.05
2023-04-19T16:54:56.115Z,45.42
2023-04-19T16:57:23.630Z,46.53
2023-04-19T16:59:50.698Z,46.85
2023-04-19T17:02:17.833Z,42.96
2023-04-19T17:04:44.848Z,46.06
2023-04-19T17:07:12.344Z,44.25
2023-04-19T17:09:39.195Z,42.91
2023-04-19T17:12:06.460Z,44.42
2023-04-19T17:14:35.116Z,41.98
2023-04-19T17:17:01.918Z,44.11
2023-04-19T17:19:28.716Z,45.99
2023-04-19T17:21:55.740Z,45.96
2023-04-19T17:24:22.627Z,46.74
2023-04-19T17:26:50.192Z,43.70
2023-04-19T17:29:17.228Z,45.13
2023-04-19T17:31:44.261Z,47.59
2023-04-19T17:34:11.573Z,47.47
2023-04-19T17:36:38.310Z,48.63
2023-04-19T17:39:06.814Z,47.23
2023-04-19T17:41:34.068Z,48.22
2023-04-19T17:44:00.929Z,46.41
2023-04-19T17:46:27.707Z,47.85
2023-04-19T17:48:55.697Z,48.68
2023-04-19T17:51:22.637Z,48.23
2023-04-19T17:53:49.332Z,47.33
2023-04-19T17:56:16.116Z,47.05
2023-04-19T17:58:42.818Z,45.02
2023-04-19T18:01:10.578Z,48.26
2023-04-19T18:03:37.513Z,49.05
2023-04-19T18:06:04.355Z,50.09
2023-04-19T18:08:31.206Z,46.24
2023-04-19T18:10:57.864Z,48.63
2023-04-19T18:13:24.581Z,49.44
2023-04-19T18:15:51.383Z,48.62
2023-04-19T18:18:18.169Z,49.37
2023-04-19T18:20:44.910Z,50.76
2023-04-19T18:23:11.669Z,50.09
2023-04-19T18:25:38.533Z,50.59
2023-04-19T18:28:05.433Z,48.12
2023-04-19T18:30:32.183Z,48.18
2023-04-19T18:32:59.463Z,47.06
2023-04-19T18:35:26.294Z,48.24
2023-04-19T18:37:53.081Z,48.26
2023-04-19T18:40:19.915Z,48.43
2023-04-19T18:42:46.707Z,50.50
2023-04-19T18:45:13.642Z,47.90
2023-04-19T18:47:40.472Z,51.04
2023-04-19T18:50:08.858Z,50.38
2023-04-19T18:52:38.498Z,50.52
2023-04-19T18:55:06.621Z,52.04
2023-04-19T18:57:34.847Z,50.31
2023-04-19T19:00:02.627Z,49.48
2023-04-19T19:02:29.507Z,50.54
2023-04-19T19:05:01.071Z,52.08
2023-04-19T19:10:09.664Z,49.91
2023-04-19T19:12:43.488Z,49.96
2023-04-19T19:15:10.975Z,51.26
2023-04-19T19:17:38.067Z,50.28
2023-04-19T19:20:06.937Z,51.51
2023-04-19T19:22:34.229Z,51.16
2023-04-19T19:25:01.422Z,52.22
2023-04-19T19:27:28.308Z,50.56
2023-04-19T19:29:55.293Z,51.43
2023-04-19T19:32:22.265Z,52.01
2023-04-19T19:37:19.744Z,52.82
2023-04-19T19:39:46.767Z,51.84
2023-04-19T19:42:16.647Z,53.31
2023-04-19T19:44:43.733Z,52.56
2023-04-19T19:47:11.404Z,52.77
2023-04-19T19:52:07.898Z,51.96
2023-04-19T19:54:34.633Z,52.41
2023-04-19T19:59:34.998Z,51.10
2023-04-19T20:02:02.611Z,52.69
2023-04-19T20:04:29.747Z,53.14
2023-04-19T20:07:28.506Z,52.48
2023-04-19T20:09:43.676Z,52.69
2023-04-19T20:12:12.811Z,52.69
2023-04-19T20:14:39.564Z,52.65
2023-04-19T20:17:06.636Z,52.43
2023-04-19T20:19:33.438Z,51.99
2023-04-19T20:22:00.764Z,50.21
2023-04-19T20:24:27.734Z,50.92
2023-04-19T20:26:54.478Z,52.72
2023-04-19T20:29:21.811Z,53.11
2023-04-19T20:31:48.533Z,53.39
2023-04-19T20:34:15.324Z,52.65
2023-04-19T20:36:42.847Z,53.63
2023-04-19T20:39:13.159Z,53.07
2023-04-19T20:41:39.949Z,53.67
2023-04-19T20:44:06.838Z,53.03
2023-04-19T20:46:34.990Z,53.09
2023-04-19T20:49:01.747Z,54.19
2023-04-19T20:51:28.449Z,54.53
2023-04-19T20:53:55.237Z,54.71
2023-04-19T20:56:21.965Z,55.20
2023-04-19T20:58:48.994Z,54.75
2023-04-19T21:01:17.657Z,54.84
2023-04-19T21:03:45.184Z,55.03
2023-04-19T21:06:12.302Z,55.87
2023-04-19T21:08:38.991Z,55.93
2023-04-19T21:11:05.738Z,55.80
2023-04-19T21:13:33.138Z,56.39
2023-04-19T21:16:00.272Z,56.02
2023-04-19T21:18:30.058Z,55.29
2023-04-19T21:20:57.647Z,55.47
2023-04-19T21:23:24.693Z,55.18
2023-04-19T21:25:51.470Z,55.53
2023-04-19T21:28:18.208Z,56.27
2023-04-19T21:30:45.571Z,56.52
2023-04-19T21:33:12.974Z,55.25
2023-04-19T21:35:39.661Z,55.46
2023-04-19T21:38:06.908Z,53.78
2023-04-19T21:40:33.609Z,55.49
2023-04-19T21:43:00.880Z,55.03
2023-04-19T21:45:27.663Z,55.09
2023-04-19T21:47:54.363Z,55.48
2023-04-19T21:50:21.112Z,55.00
2023-04-19T21:52:47.811Z,55.76
2023-04-19T21:55:14.510Z,54.02
2023-04-19T21:57:41.223Z,54.34
2023-04-19T22:00:09.863Z,55.67
2023-04-19T22:02:36.755Z,55.50
2023-04-19T22:05:03.606Z,55.93
2023-04-19T22:07:33.451Z,56.19
2023-04-19T22:10:03.066Z,57.03
2023-04-19T22:12:29.777Z,57.07
2023-04-19T22:14:56.845Z,57.03
2023-04-19T22:17:23.608Z,57.21
2023-04-19T22:19:51.683Z,58.69
2023-04-19T22:22:18.349Z,58.17
2023-04-19T22:24:56.925Z,58.57
2023-04-19T22:27:24.978Z,58.58
2023-04-19T22:29:51.970Z,59.32
2023-04-19T22:32:18.797Z,59.19
2023-04-19T22:34:45.779Z,58.24
2023-04-19T22:37:12.478Z,59.16
2023-04-19T22:39:39.237Z,59.60
2023-04-19T22:42:06.306Z,59.05
2023-04-19T22:44:33.117Z,58.79
2023-04-19T22:47:00.135Z,59.25
2023-04-19T22:49:26.904Z,59.97
2023-04-19T22:51:55.048Z,59.98
2023-04-19T22:54:21.889Z,58.66
2023-04-19T22:56:48.559Z,59.68
2023-04-19T22:59:15.404Z,59.29
2023-04-19T23:01:42.445Z,59.59
2023-04-19T23:04:13.461Z,58.81
2023-04-19T23:06:41.495Z,60.18
2023-04-19T23:09:11.113Z,59.97
2023-04-19T23:11:37.867Z,60.71
2023-04-19T23:14:04.900Z,61.57
2023-04-19T23:16:33.508Z,60.86
2023-04-19T23:19:01.289Z,60.51
2023-04-19T23:21:30.132Z,60.84
2023-04-19T23:23:56.857Z,61.06
2023-04-19T23:26:23.579Z,61.23
2023-04-19T23:28:50.274Z,61.65
2023-04-19T23:31:16.959Z,61.94
2023-04-19T23:33:43.703Z,61.34
2023-04-19T23:36:10.431Z,61.41
2023-04-19T23:38:37.137Z,61.56
2023-04-19T23:41:03.852Z,62.48
2023-04-19T23:43:30.796Z,62.11
2023-04-19T23:45:57.515Z,62.71
2023-04-19T23:48:24.258Z,62.66
2023-04-19T23:50:51.095Z,62.23
2023-04-19T23:53:17.807Z,62.59
2023-04-19T23:55:44.508Z,62.30
2023-04-19T23:58:11.225Z,62.17
